Time;durP1;ratioP1;P1;durP2;ratioP2;P2;SDS_P1;SDS_P2;PMS_P1;PMS_P2;Temp;Humidity;BMP_temperature;BMP_pressure;BME280_temperature;BME280_humidity;BME280_pressure;Samples;Min_cycle;Max_cycle;Signal;HPM_P1;HPM_P2
2023/07/14 00:00:42;;;;;;;11.90;9.15;;;;;;;16.52;90.01;101725.31;5025053;28;20368;-60
2023/07/14 00:03:16;;;;;;;13.43;8.00;;;;;;;16.52;90.02;101725.31;5023280;28;20029;-62
2023/07/14 00:05:43;;;;;;;10.95;8.60;;;;;;;16.48;90.15;101724.03;5023794;28;20056;-61
2023/07/14 00:08:17;;;;;;;10.68;8.38;;;;;;;16.51;90.11;101730.84;5019879;28;20110;-61
2023/07/14 00:10:42;;;;;;;11.13;8.63;;;;;;;16.45;90.28;101720.84;5020240;28;20026;-61
2023/07/14 00:13:08;;;;;;;11.50;8.80;;;;;;;16.44;90.30;101720.03;5025217;28;20036;-61
2023/07/14 00:15:37;;;;;;;12.43;8.32;;;;;;;16.41;90.34;101728.44;5021145;28;20040;-61
2023/07/14 00:18:25;;;;;;;13.15;9.35;;;;;;;16.47;90.09;101706.25;5027282;28;20036;-61
2023/07/14 00:20:51;;;;;;;16.13;9.52;;;;;;;16.48;90.01;101709.75;5021586;28;20025;-61
2023/07/14 00:23:17;;;;;;;11.57;9.00;;;;;;;16.42;89.49;101705.97;5024402;28;20127;-61
2023/07/14 00:25:43;;;;;;;12.07;8.95;;;;;;;16.43;89.67;101700.44;5028991;28;20059;-61
2023/07/14 00:28:15;;;;;;;14.60;9.50;;;;;;;16.45;89.90;101710.97;5021052;28;20041;-62
2023/07/14 00:30:41;;;;;;;15.32;9.15;;;;;;;16.35;89.76;101710.44;5027058;28;20032;-61
2023/07/14 00:33:15;;;;;;;14.32;8.93;;;;;;;16.40;89.76;101710.69;5017568;28;20025;-61
2023/07/14 00:35:41;;;;;;;14.50;9.68;;;;;;;16.31;89.88;101715.34;5019412;28;20080;-61
2023/07/14 00:38:07;;;;;;;11.57;9.70;;;;;;;16.34;89.96;101709.59;5023912;28;20021;-60
2023/07/14 00:40:39;;;;;;;12.30;9.82;;;;;;;16.29;90.20;101708.50;5021996;28;20028;-61
2023/07/14 00:43:11;;;;;;;13.38;10.13;;;;;;;16.28;90.23;101710.34;5020119;28;20033;-61
2023/07/14 00:45:38;;;;;;;14.45;10.50;;;;;;;16.31;90.23;101701.94;5017821;28;20097;-61
2023/07/14 00:48:04;;;;;;;13.55;10.25;;;;;;;16.30;90.47;101705.63;5026254;28;20112;-61
2023/07/14 00:50:48;;;;;;;13.27;10.80;;;;;;;16.30;90.86;101699.44;5024347;28;20033;-61
2023/07/14 00:53:20;;;;;;;12.23;10.63;;;;;;;16.24;90.66;101694.84;5024978;28;20032;-61
2023/07/14 00:55:50;;;;;;;15.90;10.68;;;;;;;16.27;90.92;101692.63;5021537;28;20490;-61
2023/07/14 00:58:23;;;;;;;13.95;10.60;;;;;;;16.23;91.07;101701.22;5022367;28;20029;-61
2023/07/14 01:01:21;;;;;;;14.95;10.88;;;;;;;16.32;91.17;101690.19;5012719;28;20029;-61
2023/07/14 01:03:48;;;;;;;16.48;10.95;;;;;;;16.26;90.53;101703.53;5023578;28;20104;-61
2023/07/14 01:06:42;;;;;;;12.85;11.10;;;;;;;16.30;91.48;101694.91;5018703;28;20459;-61
2023/07/14 01:09:12;;;;;;;16.92;11.30;;;;;;;16.22;91.54;101695.03;5022634;28;20045;-61
2023/07/14 01:11:46;;;;;;;13.50;10.63;;;;;;;16.21;91.64;101700.56;5017360;28;20184;-62
2023/07/14 01:14:17;;;;;;;13.70;10.10;;;;;;;16.10;91.44;101704.53;5020207;28;20041;-61
2023/07/14 01:16:43;;;;;;;14.13;10.38;;;;;;;16.02;91.54;101686.72;5019815;28;20036;-61
2023/07/14 01:19:20;;;;;;;14.20;10.05;;;;;;;15.98;91.88;101700.69;5021407;28;20105;-61
2023/07/14 01:21:49;;;;;;;14.95;10.55;;;;;;;15.94;91.62;101694.84;5023888;28;20048;-61
2023/07/14 01:24:25;;;;;;;13.32;10.70;;;;;;;15.93;92.33;101690.53;5023756;28;20025;-61
2023/07/14 01:27:00;;;;;;;12.75;10.35;;;;;;;15.96;92.81;101692.81;5024443;28;20028;-61
2023/07/14 01:29:25;;;;;;;18.20;10.82;;;;;;;15.96;92.51;101682.09;5018919;28;20155;-61
2023/07/14 01:31:52;;;;;;;13.18;10.02;;;;;;;15.98;92.51;101679.25;5022923;28;20104;-60
2023/07/14 01:34:18;;;;;;;15.25;10.10;;;;;;;15.97;92.70;101674.91;5027482;28;20029;-61
2023/07/14 01:36:44;;;;;;;16.20;10.15;;;;;;;16.00;92.85;101678.03;5021239;28;20029;-61
2023/07/14 01:39:11;;;;;;;17.63;10.57;;;;;;;15.98;92.63;101674.72;5018936;28;20025;-62
2023/07/14 01:41:37;;;;;;;13.95;9.38;;;;;;;15.95;92.69;101669.72;5024709;28;20044;-61
2023/07/14 01:44:04;;;;;;;16.10;9.85;;;;;;;15.97;93.14;101672.22;5019877;28;20061;-61
2023/07/14 01:46:30;;;;;;;15.23;9.43;;;;;;;15.98;93.10;101669.34;5019441;28;20622;-61
2023/07/14 01:48:58;;;;;;;12.52;8.85;;;;;;;16.00;93.01;101664.63;5022902;28;20106;-61
2023/07/14 01:51:31;;;;;;;12.32;8.82;;;;;;;15.99;92.54;101670.19;5022832;28;20029;-60
2023/07/14 01:54:11;;;;;;;13.50;9.48;;;;;;;15.97;92.45;101672.22;5021504;28;20018;-61
2023/07/14 01:56:38;;;;;;;12.10;8.57;;;;;;;15.93;92.23;101666.41;5023488;28;20025;-61
2023/07/14 01:59:14;;;;;;;12.73;8.10;;;;;;;15.91;92.13;101665.75;5022381;28;20030;-61
2023/07/14 02:01:43;;;;;;;12.77;8.57;;;;;;;15.90;91.87;101665.91;5019823;28;20040;-61
2023/07/14 02:04:32;;;;;;;11.18;8.38;;;;;;;15.89;91.64;101664.25;5023411;28;20034;-61
2023/07/14 02:07:01;;;;;;;11.93;8.25;;;;;;;15.84;91.10;101667.50;5016760;28;20025;-61
2023/07/14 02:09:29;;;;;;;15.90;8.60;;;;;;;15.77;91.17;101664.72;5024015;28;20033;-61
2023/07/14 02:12:02;;;;;;;14.13;8.55;;;;;;;15.68;90.57;101665.84;5011061;28;20037;-61
2023/07/14 02:14:35;;;;;;;12.35;7.82;;;;;;;15.61;90.80;101669.41;5020444;28;20541;-61
2023/07/14 02:17:05;;;;;;;11.73;8.27;;;;;;;15.54;90.48;101663.94;5022289;28;20034;-61
2023/07/14 02:19:32;;;;;;;12.48;7.90;;;;;;;15.50;90.36;101662.66;5027679;28;20060;-61
2023/07/14 02:21:58;;;;;;;15.98;8.32;;;;;;;15.40;90.34;101651.38;5023521;28;20024;-61
2023/07/14 02:24:26;;;;;;;12.13;7.85;;;;;;;15.43;90.47;101656.38;5026688;28;20025;-61
2023/07/14 02:26:59;;;;;;;13.35;8.60;;;;;;;15.38;90.52;101656.09;5016117;28;20024;-60
2023/07/14 02:29:26;;;;;;;10.80;8.48;;;;;;;15.37;90.65;101659.78;5028027;28;20013;-60
2023/07/14 02:31:54;;;;;;;12.80;8.63;;;;;;;15.31;90.83;101655.97;5020470;28;20077;-61
2023/07/14 02:34:21;;;;;;;12.50;8.73;;;;;;;15.27;90.88;101657.34;5022939;28;20486;-61
2023/07/14 02:37:05;;;;;;;13.13;8.18;;;;;;;15.26;91.07;101660.19;5028069;28;20272;-61
2023/07/14 02:39:38;;;;;;;11.95;7.80;;;;;;;15.21;90.78;101654.56;5024668;28;20080;-61
2023/07/14 02:42:04;;;;;;;10.25;7.53;;;;;;;15.15;90.57;101662.31;5025281;28;20044;-61
2023/07/14 02:44:32;;;;;;;12.55;7.50;;;;;;;15.11;90.38;101654.81;5023537;28;20033;-61
2023/07/14 02:47:04;;;;;;;10.90;7.53;;;;;;;15.07;90.21;101649.00;5028757;28;20479;-61
2023/07/14 02:49:29;;;;;;;12.27;8.15;;;;;;;15.05;90.29;101651.03;5018423;28;20403;-61
2023/07/14 02:51:55;;;;;;;11.38;7.65;;;;;;;15.02;90.13;101654.03;5020866;28;20026;-61
2023/07/14 02:54:20;;;;;;;11.90;7.65;;;;;;;15.04;90.40;101653.88;5029273;28;20021;-61
2023/07/14 02:56:46;;;;;;;12.60;8.10;;;;;;;15.00;90.62;101656.06;5021483;28;20018;-61
2023/07/14 02:59:13;;;;;;;11.32;7.78;;;;;;;14.98;90.68;101652.72;5028930;28;20029;-60
2023/07/14 03:01:39;;;;;;;10.52;8.25;;;;;;;15.01;90.67;101648.88;5024226;28;20868;-61
2023/07/14 03:04:05;;;;;;;12.93;8.00;;;;;;;15.02;90.76;101645.19;5030222;28;20025;-61
2023/07/14 03:06:30;;;;;;;13.52;7.70;;;;;;;15.00;90.96;101648.03;5023835;28;20025;-61
2023/07/14 03:08:56;;;;;;;15.70;8.77;;;;;;;15.04;91.12;101643.19;5023435;28;20733;-61
2023/07/14 03:11:21;;;;;;;12.38;9.18;;;;;;;15.06;91.42;101652.69;5024881;28;20029;-61
2023/07/14 03:13:47;;;;;;;13.32;9.13;;;;;;;15.10;91.34;101647.81;5022392;28;20434;-61
2023/07/14 03:16:13;;;;;;;11.73;8.98;;;;;;;15.10;91.10;101648.66;5030296;28;20061;-61
2023/07/14 03:18:39;;;;;;;14.55;9.88;;;;;;;15.10;91.55;101640.63;5019326;28;20687;-61
2023/07/14 03:21:06;;;;;;;10.93;8.88;;;;;;;15.11;91.62;101647.63;5022165;28;20021;-61
2023/07/14 03:23:33;;;;;;;14.65;9.25;;;;;;;15.11;91.37;101641.44;5019549;28;20546;-61
2023/07/14 03:26:01;;;;;;;14.10;10.10;;;;;;;15.06;91.26;101641.16;5026221;28;20053;-61
2023/07/14 03:28:27;;;;;;;14.02;9.65;;;;;;;15.04;91.07;101635.16;5023130;28;20049;-61
2023/07/14 03:30:53;;;;;;;14.25;9.43;;;;;;;15.01;91.15;101635.50;5029341;28;20017;-61
2023/07/14 03:33:18;;;;;;;12.32;9.30;;;;;;;15.00;91.27;101629.31;5027643;28;20056;-61
2023/07/14 03:35:44;;;;;;;15.38;9.38;;;;;;;15.01;91.98;101628.31;5024821;28;20540;-61
2023/07/14 03:38:09;;;;;;;14.48;9.90;;;;;;;15.01;91.44;101635.50;5026831;28;20022;-61
2023/07/14 03:40:35;;;;;;;13.05;9.02;;;;;;;14.98;91.35;101633.19;5022450;28;20024;-61
2023/07/14 03:43:00;;;;;;;13.35;9.20;;;;;;;14.95;91.58;101625.53;5017869;28;20689;-61
2023/07/14 03:45:26;;;;;;;13.23;9.75;;;;;;;14.89;91.56;101624.41;5021110;28;20048;-61
2023/07/14 03:47:51;;;;;;;13.20;9.60;;;;;;;14.87;91.40;101616.56;5024818;28;20047;-60
2023/07/14 03:50:17;;;;;;;14.52;10.15;;;;;;;14.90;91.95;101617.22;5026349;28;20026;-61
2023/07/14 03:52:42;;;;;;;13.23;9.23;;;;;;;14.93;91.93;101620.34;5022957;28;20049;-61
2023/07/14 03:55:09;;;;;;;16.85;9.25;;;;;;;14.94;92.11;101619.34;5025140;28;20017;-61
2023/07/14 03:57:35;;;;;;;11.93;9.18;;;;;;;14.91;91.59;101619.72;5022801;28;20029;-61
2023/07/14 04:00:11;;;;;;;16.08;9.63;;;;;;;14.91;91.74;101618.88;5024199;28;20022;-61
2023/07/14 04:02:41;;;;;;;14.23;9.10;;;;;;;14.85;91.14;101612.41;5026629;28;20021;-60
2023/07/14 04:05:09;;;;;;;;;;;;;;;14.93;91.17;101617.69;5026210;28;20037;-61
2023/07/14 04:07:36;;;;;;;14.10;8.93;;;;;;;14.88;91.13;101618.22;5026485;28;20378;-61
2023/07/14 04:10:03;;;;;;;11.23;8.98;;;;;;;14.87;91.49;101623.75;5019201;28;20033;-61
2023/07/14 04:12:29;;;;;;;13.32;8.90;;;;;;;14.85;91.59;101615.09;5026374;28;20529;-61
2023/07/14 04:14:54;;;;;;;14.43;9.35;;;;;;;14.92;91.36;101623.22;5022863;28;20515;-60
2023/07/14 04:17:20;;;;;;;11.13;8.75;;;;;;;14.95;91.61;101623.69;5029038;28;20445;-61
2023/07/14 04:19:45;;;;;;;12.80;8.30;;;;;;;14.93;91.34;101614.19;5021208;28;20034;-61
2023/07/14 04:22:10;;;;;;;13.13;8.73;;;;;;;14.92;91.51;101621.38;5015630;28;20030;-61
2023/07/14 04:24:36;;;;;;;11.85;8.88;;;;;;;14.90;91.32;101618.03;5024746;28;20422;-61
2023/07/14 04:27:01;;;;;;;14.70;8.63;;;;;;;14.87;91.30;101613.06;5024352;28;20025;-60
2023/07/14 04:29:26;;;;;;;13.13;8.60;;;;;;;14.85;91.15;101613.25;5018598;28;20057;-60
2023/07/14 04:31:52;;;;;;;10.60;8.65;;;;;;;14.83;91.02;101606.41;5017027;28;20033;-60
2023/07/14 04:34:17;;;;;;;14.20;9.07;;;;;;;14.84;91.28;101603.56;5028003;28;20497;-61
2023/07/14 04:36:44;;;;;;;13.05;8.98;;;;;;;14.81;91.05;101611.09;5018690;28;20032;-61
2023/07/14 04:39:11;;;;;;;11.65;8.93;;;;;;;14.77;90.86;101607.97;5025224;28;20116;-61
2023/07/14 04:41:37;;;;;;;12.25;8.95;;;;;;;14.73;91.24;101606.63;5022491;28;20032;-60
2023/07/14 04:44:14;;;;;;;13.02;9.10;;;;;;;14.72;91.65;101604.13;5024340;28;20029;-60
2023/07/14 04:46:41;;;;;;;12.02;8.77;;;;;;;14.72;91.54;101614.84;5021720;28;20028;-60
2023/07/14 04:49:07;;;;;;;13.60;9.30;;;;;;;14.73;91.79;101613.81;5025563;28;20029;-60
2023/07/14 04:51:34;;;;;;;12.82;9.25;;;;;;;14.75;91.62;101607.31;5019484;28;20021;-61
2023/07/14 04:54:00;;;;;;;13.10;8.93;;;;;;;14.79;91.77;101610.47;5020791;28;20036;-60
2023/07/14 04:56:26;;;;;;;14.65;9.27;;;;;;;14.79;91.60;101613.13;5012441;28;20021;-60
2023/07/14 04:58:52;;;;;;;13.48;8.98;;;;;;;14.81;91.74;101613.78;5026837;28;20086;-61
2023/07/14 05:01:17;;;;;;;13.82;9.38;;;;;;;14.79;91.31;101616.63;5015206;28;20026;-61
2023/07/14 05:03:44;;;;;;;12.88;8.95;;;;;;;14.80;91.52;101612.94;5024316;28;20108;-60
2023/07/14 05:06:10;;;;;;;13.52;9.25;;;;;;;14.81;91.67;101611.94;5025694;28;20057;-61
2023/07/14 05:08:35;;;;;;;14.93;8.77;;;;;;;14.83;91.53;101609.09;5026244;28;20025;-60
2023/07/14 05:11:01;;;;;;;12.00;8.82;;;;;;;14.84;91.85;101605.41;5019037;28;20050;-61
2023/07/14 05:13:26;;;;;;;10.80;7.90;;;;;;;14.86;91.65;101608.72;5024656;28;20422;-60
2023/07/14 05:15:51;;;;;;;12.98;8.90;;;;;;;14.87;91.57;101605.88;5023164;28;20033;-60
2023/07/14 05:18:18;;;;;;;10.95;8.27;;;;;;;14.89;91.79;101608.34;5022172;28;20151;-60
2023/07/14 05:20:44;;;;;;;11.05;7.65;;;;;;;14.90;91.64;101606.50;5023695;28;20025;-60
2023/07/14 05:23:11;;;;;;;10.80;7.70;;;;;;;14.91;91.60;101606.34;5024668;28;20498;-60
2023/07/14 05:25:37;;;;;;;11.18;8.05;;;;;;;14.90;91.45;101604.66;5024103;28;20028;-61
2023/07/14 05:28:02;;;;;;;13.32;8.00;;;;;;;14.92;91.16;101607.16;5020052;28;20026;-61
2023/07/14 05:30:28;;;;;;;15.55;7.95;;;;;;;14.93;91.70;101606.97;5020527;28;20044;-60
2023/07/14 05:32:53;;;;;;;11.02;7.82;;;;;;;14.95;91.87;101618.31;5021704;28;20041;-60
2023/07/14 05:35:22;;;;;;;12.27;7.60;;;;;;;14.95;91.31;101604.13;5020458;28;20026;-61
2023/07/14 05:37:47;;;;;;;12.23;7.57;;;;;;;14.98;91.50;101614.47;5019288;28;20029;-61
2023/07/14 05:40:15;;;;;;;10.65;7.15;;;;;;;14.98;91.15;101611.78;5019754;28;20040;-61
2023/07/14 05:42:41;;;;;;;15.88;7.32;;;;;;;15.01;91.21;101606.06;5011996;28;20018;-61
2023/07/14 05:45:09;;;;;;;11.50;7.68;;;;;;;15.03;91.33;101612.91;5019593;28;20033;-60
2023/07/14 05:47:36;;;;;;;10.30;6.95;;;;;;;15.06;90.93;101598.34;5020347;28;20133;-61
2023/07/14 05:50:03;;;;;;;11.40;7.45;;;;;;;15.07;90.76;101605.38;5019449;28;20057;-61
2023/07/14 05:52:28;;;;;;;11.95;6.80;;;;;;;15.08;90.55;101597.16;5026648;28;20033;-61
2023/07/14 05:54:54;;;;;;;13.23;6.85;;;;;;;15.08;90.30;101599.84;5026886;28;20041;-61
2023/07/14 05:57:19;;;;;;;10.20;6.85;;;;;;;15.11;90.50;101602.16;5028044;28;20029;-61
2023/07/14 05:59:44;;;;;;;10.98;7.07;;;;;;;15.12;90.53;101597.63;5028370;28;20032;-61
2023/07/14 06:02:14;;;;;;;14.85;7.13;;;;;;;15.13;90.22;101602.78;5029776;28;20069;-61
2023/07/14 06:04:39;;;;;;;;;;;;;;;15.19;90.32;101599.38;5025623;28;20399;-60
2023/07/14 06:07:06;;;;;;;15.82;7.20;;;;;;;15.22;90.39;101598.19;5019004;28;19913;-61
2023/07/14 06:09:36;;;;;;;11.25;6.53;;;;;;;15.27;90.33;101606.50;5024117;28;20041;-61
2023/07/14 06:12:04;;;;;;;11.77;6.90;;;;;;;15.30;89.72;101603.44;5024888;28;20041;-61
2023/07/14 06:14:34;;;;;;;9.55;6.85;;;;;;;15.35;89.60;101597.56;5030473;28;20025;-60
2023/07/14 06:17:00;;;;;;;14.15;6.72;;;;;;;15.38;89.27;101600.72;5027038;28;20495;-61
2023/07/14 06:19:27;;;;;;;12.32;6.90;;;;;;;15.40;89.27;101600.53;5030570;28;20025;-61
2023/07/14 06:21:54;;;;;;;13.07;7.38;;;;;;;15.47;89.13;101596.09;5022202;28;20101;-60
2023/07/14 06:24:20;;;;;;;15.32;7.07;;;;;;;15.44;88.61;101591.94;5022196;28;20029;-60
2023/07/14 06:26:45;;;;;;;11.30;6.82;;;;;;;15.43;88.14;101587.59;5023864;28;20032;-61
2023/07/14 06:29:10;;;;;;;11.20;6.38;;;;;;;15.46;88.05;101583.72;5022144;28;20025;-61
2023/07/14 06:31:36;;;;;;;11.63;6.57;;;;;;;15.48;88.11;101592.41;5027858;28;20530;-61
2023/07/14 06:34:01;;;;;;;11.95;6.75;;;;;;;15.53;87.62;101586.47;5033548;28;20120;-61
2023/07/14 06:36:27;;;;;;;12.05;6.30;;;;;;;15.56;87.65;101594.97;5023381;28;20426;-61
2023/07/14 06:38:52;;;;;;;11.75;6.60;;;;;;;15.62;87.10;101598.81;5021886;28;20037;-61
2023/07/14 06:41:18;;;;;;;9.88;6.40;;;;;;;15.67;86.95;101599.91;5019187;28;20068;-60
2023/07/14 06:43:43;;;;;;;10.82;5.72;;;;;;;15.71;86.72;101595.03;5026182;28;20125;-61
2023/07/14 06:46:08;;;;;;;10.20;5.63;;;;;;;15.80;86.11;101600.09;5024678;28;20100;-61
2023/07/14 06:48:34;;;;;;;10.00;6.03;;;;;;;15.88;85.55;101598.31;5027858;28;20095;-61
2023/07/14 06:50:59;;;;;;;13.38;6.00;;;;;;;15.93;85.24;101588.72;5025071;28;20045;-61
2023/07/14 06:53:26;;;;;;;12.60;5.65;;;;;;;16.03;84.56;101593.78;5022886;28;20392;-61
2023/07/14 06:55:52;;;;;;;13.80;6.00;;;;;;;16.12;84.87;101600.69;5025865;28;20044;-61
2023/07/14 06:58:17;;;;;;;9.68;5.82;;;;;;;16.26;85.09;101590.94;5027261;28;20109;-61
2023/07/14 07:00:42;;;;;;;13.10;5.93;;;;;;;16.33;84.50;101586.47;5023748;28;20144;-61
2023/07/14 07:03:08;;;;;;;12.63;6.13;;;;;;;16.40;84.14;101588.22;5025983;28;20036;-61
2023/07/14 07:05:39;;;;;;;8.63;5.57;;;;;;;16.42;83.25;101586.16;5020956;28;20034;-61
2023/07/14 07:08:08;;;;;;;12.65;6.18;;;;;;;16.43;82.79;101587.00;5025527;28;20488;-61
2023/07/14 07:10:34;;;;;;;10.95;6.05;;;;;;;16.43;82.27;101582.47;5022869;28;20045;-60
2023/07/14 07:12:59;;;;;;;13.05;6.00;;;;;;;16.46;82.17;101575.88;5029353;28;20030;-61
2023/07/14 07:15:25;;;;;;;8.68;6.05;;;;;;;16.49;81.78;101580.91;5029019;28;20036;-61
2023/07/14 07:17:50;;;;;;;13.13;6.43;;;;;;;16.51;81.63;101578.84;5028528;28;20082;-61
2023/07/14 07:20:15;;;;;;;13.40;6.10;;;;;;;16.55;81.47;101571.25;5025840;28;20029;-61
2023/07/14 07:22:41;;;;;;;9.68;5.55;;;;;;;16.50;80.74;101574.50;5024030;28;20923;-61
2023/07/14 07:25:07;;;;;;;8.82;5.07;;;;;;;16.51;80.64;101567.28;5025025;28;20043;-61
2023/07/14 07:27:34;;;;;;;11.05;5.60;;;;;;;16.54;80.63;101572.28;5021752;28;20021;-60
2023/07/14 07:30:00;;;;;;;10.88;5.15;;;;;;;16.55;80.56;101563.19;5023285;28;20045;-61
2023/07/14 07:32:27;;;;;;;11.02;4.55;;;;;;;16.62;79.73;101569.44;5029062;28;20778;-61
2023/07/14 07:34:53;;;;;;;11.88;4.93;;;;;;;16.70;79.42;101569.34;5022488;28;20040;-60
2023/07/14 07:37:18;;;;;;;11.23;5.00;;;;;;;16.84;79.47;101567.63;5019567;28;20395;-60
2023/07/14 07:39:44;;;;;;;10.32;5.15;;;;;;;16.97;79.44;101567.72;5023698;28;20036;-61
2023/07/14 07:42:10;;;;;;;9.73;4.28;;;;;;;17.10;79.18;101569.69;5027163;28;20052;-60
2023/07/14 07:44:36;;;;;;;6.20;3.88;;;;;;;17.13;78.56;101561.22;5029939;28;20031;-61
2023/07/14 07:47:02;;;;;;;7.68;4.47;;;;;;;17.14;77.35;101552.16;5028166;28;20025;-61
2023/07/14 07:49:27;;;;;;;13.43;4.60;;;;;;;17.19;77.42;101557.75;5018239;28;20029;-61
2023/07/14 07:51:53;;;;;;;10.27;4.43;;;;;;;17.22;77.14;101549.31;5026873;28;20026;-61
2023/07/14 07:54:19;;;;;;;12.85;4.72;;;;;;;17.25;76.92;101556.97;5024576;28;20095;-60
2023/07/14 07:56:45;;;;;;;8.45;3.90;;;;;;;17.33;77.28;101552.25;5028601;28;20113;-61
2023/07/14 07:59:16;;;;;;;9.70;4.72;;;;;;;17.39;76.67;101549.84;5013948;28;20480;-61
2023/07/14 08:01:43;;;;;;;12.38;5.43;;;;;;;17.50;76.07;101547.41;5029443;28;20067;-61
2023/07/14 08:04:10;;;;;;;7.55;3.97;;;;;;;17.54;75.86;101543.28;5028103;28;20079;-61
2023/07/14 08:06:36;;;;;;;11.07;4.70;;;;;;;17.53;75.49;101551.56;5027079;28;20037;-61
2023/07/14 08:09:04;;;;;;;8.02;4.35;;;;;;;17.52;75.14;101545.34;5027368;28;20032;-61
2023/07/14 08:11:30;;;;;;;8.45;4.60;;;;;;;17.63;75.16;101544.78;5027744;28;20037;-61
2023/07/14 08:13:55;;;;;;;9.98;4.57;;;;;;;17.69;74.85;101528.94;5019298;28;20023;-62
2023/07/14 08:16:21;;;;;;;8.35;3.53;;;;;;;17.75;74.66;101541.56;5024918;28;20100;-61
2023/07/14 08:18:46;;;;;;;7.25;3.60;;;;;;;17.85;74.31;101536.63;5021640;28;20033;-61
2023/07/14 08:21:12;;;;;;;7.47;3.22;;;;;;;17.91;74.10;101543.88;5018964;28;20030;-61
2023/07/14 08:23:40;;;;;;;5.85;3.50;;;;;;;17.98;72.97;101533.19;5020467;28;20021;-61
2023/07/14 08:26:05;;;;;;;7.55;3.33;;;;;;;17.99;72.73;101532.97;5018866;28;20372;-60
2023/07/14 08:28:31;;;;;;;8.15;3.53;;;;;;;18.03;71.43;101542.28;5024956;28;20070;-62
2023/07/14 08:31:01;;;;;;;7.07;3.42;;;;;;;18.12;71.86;101535.69;5024425;28;20026;-61
2023/07/14 08:33:27;;;;;;;7.20;3.50;;;;;;;18.23;71.61;101542.34;5020231;28;20029;-61
2023/07/14 08:35:54;;;;;;;6.80;3.10;;;;;;;18.22;71.21;101540.69;5022168;28;20033;-60
2023/07/14 08:38:20;;;;;;;6.00;3.30;;;;;;;18.26;71.24;101542.75;5028708;28;20112;-62
2023/07/14 08:41:09;;;;;;;7.13;3.28;;;;;;;18.23;69.87;101543.19;5019409;28;20103;-61
2023/07/14 08:43:53;;;;;;;6.13;3.10;;;;;;;18.18;69.70;101542.09;5024553;28;20029;-61
2023/07/14 08:47:01;;;;;;;5.93;2.70;;;;;;;18.19;69.33;101547.28;5015219;28;20104;-61
2023/07/14 08:49:29;;;;;;;9.88;2.92;;;;;;;18.28;69.60;101545.25;5015611;28;20041;-61
2023/07/14 08:52:01;;;;;;;7.20;3.00;;;;;;;18.39;69.60;101535.75;5025589;28;20029;-61
2023/07/14 08:54:43;;;;;;;7.25;2.97;;;;;;;18.43;68.64;101539.66;5024481;28;20025;-62
2023/07/14 08:57:20;;;;;;;5.70;2.90;;;;;;;18.42;68.49;101536.16;5022665;28;20025;-61
2023/07/14 08:59:48;;;;;;;5.50;2.80;;;;;;;18.49;68.32;101525.41;5027038;28;20025;-61
2023/07/14 09:02:21;;;;;;;5.07;2.72;;;;;;;18.70;68.36;101522.53;5025730;28;20053;-62
2023/07/14 09:04:58;;;;;;;7.70;2.90;;;;;;;18.89;68.33;101520.88;5024739;28;20087;-61
2023/07/14 09:07:24;;;;;;;6.65;2.50;;;;;;;18.94;67.20;101513.00;5021397;28;20030;-61
2023/07/14 09:09:49;;;;;;;7.95;2.63;;;;;;;19.02;66.05;101520.03;5021150;28;20032;-62
2023/07/14 09:12:34;;;;;;;5.32;2.65;;;;;;;19.04;65.26;101524.16;5025100;28;20037;-61
2023/07/14 09:15:19;;;;;;;7.63;2.72;;;;;;;19.02;65.36;101514.66;5024183;28;20033;-62
2023/07/14 09:18:22;;;;;;;6.03;2.88;;;;;;;19.23;65.64;101511.72;5017490;28;20025;-62
2023/07/14 09:21:13;;;;;;;3.40;2.22;;;;;;;19.53;65.23;101511.19;5022561;28;20033;-61
2023/07/14 09:24:06;;;;;;;4.90;2.78;;;;;;;19.55;63.14;101512.66;5024613;28;20049;-62
2023/07/14 09:26:44;;;;;;;5.03;2.47;;;;;;;19.57;62.95;101510.59;5012417;28;20081;-61
2023/07/14 09:29:18;;;;;;;5.10;2.78;;;;;;;19.58;62.75;101514.94;5025186;28;20021;-61
2023/07/14 09:32:04;;;;;;;4.75;2.63;;;;;;;19.69;63.13;101516.97;5029869;28;20034;-62
2023/07/14 09:34:38;;;;;;;7.53;2.40;;;;;;;19.76;62.06;101511.56;5017921;28;20021;-62
2023/07/14 09:37:20;;;;;;;6.03;3.10;;;;;;;19.86;62.12;101505.69;5026217;28;20120;-61
2023/07/14 09:39:47;;;;;;;5.55;3.03;;;;;;;19.86;61.84;101492.22;5025775;28;20391;-61
2023/07/14 09:42:32;;;;;;;4.95;2.65;;;;;;;19.96;61.83;101496.09;5024769;28;20048;-62
2023/07/14 09:45:08;;;;;;;4.55;2.55;;;;;;;19.96;61.91;101495.28;5023353;28;20025;-62
2023/07/14 09:47:35;;;;;;;5.60;2.78;;;;;;;19.98;62.11;101494.03;5016775;28;20021;-62
2023/07/14 09:50:00;;;;;;;5.72;3.17;;;;;;;20.02;62.06;101495.22;5014036;28;20108;-62
2023/07/14 09:52:28;;;;;;;5.18;3.10;;;;;;;20.15;61.78;101494.31;5018428;28;20462;-61
2023/07/14 09:54:59;;;;;;;4.30;3.20;;;;;;;20.24;61.83;101486.78;5020719;28;20558;-62
2023/07/14 09:57:28;;;;;;;4.47;3.00;;;;;;;20.36;61.53;101485.88;5015896;28;20519;-62
2023/07/14 10:00:00;;;;;;;8.52;3.22;;;;;;;20.48;61.50;101487.88;5020177;28;20017;-61
2023/07/14 10:02:31;;;;;;;8.38;3.75;;;;;;;20.59;61.29;101484.47;5024855;28;20390;-64
2023/07/14 10:05:21;;;;;;;6.50;2.95;;;;;;;20.61;60.85;101474.28;5032013;28;20024;-62
2023/07/14 10:07:47;;;;;;;6.75;3.15;;;;;;;20.68;61.19;101467.78;5022141;28;20026;-62
2023/07/14 10:10:14;;;;;;;6.72;3.50;;;;;;;20.75;60.88;101456.91;5018065;28;20029;-62
2023/07/14 10:12:49;;;;;;;9.27;3.50;;;;;;;20.76;60.81;101460.44;5022750;28;20525;-62
2023/07/14 10:15:34;;;;;;;7.70;3.20;;;;;;;20.77;61.00;101453.97;5021133;28;20100;-61
2023/07/14 10:18:19;;;;;;;5.22;3.20;;;;;;;20.88;60.67;101456.78;5026630;28;20049;-62
2023/07/14 10:20:59;;;;;;;6.03;2.90;;;;;;;20.92;60.08;101451.75;5019090;28;20108;-62
2023/07/14 10:23:25;;;;;;;6.50;2.95;;;;;;;20.93;59.68;101443.44;5016803;28;20021;-62
2023/07/14 10:25:53;;;;;;;5.32;3.10;;;;;;;21.01;59.76;101447.72;5020336;28;20061;-62
2023/07/14 10:28:23;;;;;;;5.57;3.13;;;;;;;20.96;58.98;101439.47;5015929;28;20108;-62
2023/07/14 10:31:02;;;;;;;5.95;3.17;;;;;;;21.01;59.67;101435.03;5018797;28;20038;-62
2023/07/14 10:33:40;;;;;;;4.10;2.65;;;;;;;21.01;59.37;101434.19;5016636;28;20116;-62
2023/07/14 10:36:10;;;;;;;4.83;2.60;;;;;;;20.95;58.97;101429.72;5016921;28;20033;-62
2023/07/14 10:38:55;;;;;;;4.57;2.90;;;;;;;21.00;59.11;101427.97;5018841;28;20037;-61
2023/07/14 10:41:23;;;;;;;7.63;2.80;;;;;;;21.09;59.05;101417.69;5023115;28;20100;-62
2023/07/14 10:43:51;;;;;;;;;;;;;;;21.16;59.52;101413.06;5024922;28;20058;-62
2023/07/14 10:46:21;;;;;;;7.22;3.00;;;;;;;21.13;58.59;101413.50;5027935;28;19913;-62
2023/07/14 10:48:53;;;;;;;6.43;2.75;;;;;;;21.19;58.73;101414.47;5023418;28;20017;-62
2023/07/14 10:51:43;;;;;;;5.35;2.80;;;;;;;21.29;58.55;101412.91;5024554;28;20030;-62
2023/07/14 10:54:21;;;;;;;8.02;2.97;;;;;;;21.30;57.69;101411.84;5026609;28;20034;-62
2023/07/14 10:56:52;;;;;;;5.03;2.58;;;;;;;21.22;58.65;101409.44;5020240;28;20037;-63
2023/07/14 10:59:26;;;;;;;5.93;2.80;;;;;;;21.03;58.31;101411.31;5021244;28;20045;-63
2023/07/14 11:02:09;;;;;;;4.32;3.00;;;;;;;20.99;58.38;101407.41;5020822;28;20030;-63
2023/07/14 11:04:42;;;;;;;7.45;3.20;;;;;;;20.95;58.05;101410.81;5023338;28;20498;-63
2023/07/14 11:07:15;;;;;;;5.53;3.03;;;;;;;20.93;58.19;101407.50;5026298;28;20037;-63
2023/07/14 11:09:41;;;;;;;4.68;2.65;;;;;;;20.98;58.64;101407.66;5013017;28;20038;-62
2023/07/14 11:12:41;;;;;;;6.75;3.15;;;;;;;21.01;59.19;101405.31;5024746;28;20403;-63
2023/07/14 11:15:12;;;;;;;6.20;3.42;;;;;;;21.02;58.96;101392.66;5025141;28;20034;-63
2023/07/14 11:17:43;;;;;;;5.43;3.03;;;;;;;21.03;58.83;101378.09;5026117;28;20104;-63
2023/07/14 11:20:17;;;;;;;7.30;3.08;;;;;;;21.18;59.47;101373.13;5018581;28;20688;-63
2023/07/14 11:22:55;;;;;;;6.28;3.13;;;;;;;21.33;59.02;101368.16;5019518;28;20110;-63
2023/07/14 11:25:38;;;;;;;3.85;2.58;;;;;;;21.53;59.37;101365.19;5029082;28;20056;-62
2023/07/14 11:28:12;;;;;;;7.72;3.00;;;;;;;21.70;59.71;101351.84;5025108;28;20037;-63
2023/07/14 11:30:43;;;;;;;4.75;2.83;;;;;;;21.85;59.37;101333.28;5023702;28;20028;-63